sensor_id;sensor_type;location;lat;lon;timestamp;temperature;humidity
13231;DHT22;6681;53.254;10.398;2022-10-31T00:01:38;13.30;99.90
13231;DHT22;6681;53.254;10.398;2022-10-31T00:04:04;12.00;99.90
13231;DHT22;6681;53.254;10.398;2022-10-31T00:06:30;12.00;99.90
13231;DHT22;6681;53.254;10.398;2022-10-31T00:08:58;12.50;99.90
13231;DHT22;6681;53.254;10.398;2022-10-31T00:11:24;11.90;99.90
13231;DHT22;6681;53.254;10.398;2022-10-31T00:13:50;11.90;99.90
13231;DHT22;6681;53.254;10.398;2022-10-31T00:16:21;11.80;99.90
13231;DHT22;6681;53.254;10.398;2022-10-31T00:18:54;11.90;99.90
13231;DHT22;6681;53.254;10.398;2022-10-31T00:21:21;11.90;99.90
13231;DHT22;6681;53.254;10.398;2022-10-31T00:23:47;11.90;99.90
13231;DHT22;6681;53.254;10.398;2022-10-31T00:26:13;12.80;99.90
13231;DHT22;6681;53.254;10.398;2022-10-31T00:28:38;12.30;99.90
13231;DHT22;6681;53.254;10.398;2022-10-31T00:31:06;14.00;99.90
13231;DHT22;6681;53.254;10.398;2022-10-31T00:33:34;11.80;99.90
13231;DHT22;6681;53.254;10.398;2022-10-31T00:36:00;11.80;99.90
13231;DHT22;6681;53.254;10.398;2022-10-31T00:38:25;11.70;99.90
13231;DHT22;6681;53.254;10.398;2022-10-31T00:40:51;12.20;99.90
13231;DHT22;6681;53.254;10.398;2022-10-31T00:43:17;11.70;99.90
13231;DHT22;6681;53.254;10.398;2022-10-31T00:45:43;11.70;99.90
13231;DHT22;6681;53.254;10.398;2022-10-31T00:48:09;11.70;99.90
13231;DHT22;6681;53.254;10.398;2022-10-31T00:50:34;11.70;99.90
13231;DHT22;6681;53.254;10.398;2022-10-31T00:53:00;11.70;99.90
13231;DHT22;6681;53.254;10.398;2022-10-31T00:55:26;13.00;99.90
13231;DHT22;6681;53.254;10.398;2022-10-31T00:57:51;13.00;99.90
13231;DHT22;6681;53.254;10.398;2022-10-31T01:00:17;11.60;99.90
13231;DHT22;6681;53.254;10.398;2022-10-31T01:02:43;11.60;99.90
13231;DHT22;6681;53.254;10.398;2022-10-31T01:05:08;13.30;99.90
13231;DHT22;6681;53.254;10.398;2022-10-31T01:07:38;12.10;99.90
13231;DHT22;6681;53.254;10.398;2022-10-31T01:10:05;11.60;99.90
13231;DHT22;6681;53.254;10.398;2022-10-31T01:12:36;11.50;99.90
13231;DHT22;6681;53.254;10.398;2022-10-31T01:15:03;12.10;99.90
13231;DHT22;6681;53.254;10.398;2022-10-31T01:17:29;11.50;99.90
13231;DHT22;6681;53.254;10.398;2022-10-31T01:19:54;11.40;99.90
13231;DHT22;6681;53.254;10.398;2022-10-31T01:22:20;11.40;99.90
13231;DHT22;6681;53.254;10.398;2022-10-31T01:24:45;11.40;99.90
13231;DHT22;6681;53.254;10.398;2022-10-31T01:27:11;11.40;99.90
13231;DHT22;6681;53.254;10.398;2022-10-31T01:29:37;11.30;99.90
13231;DHT22;6681;53.254;10.398;2022-10-31T01:32:02;11.30;99.90
13231;DHT22;6681;53.254;10.398;2022-10-31T01:34:28;9.00;99.90
13231;DHT22;6681;53.254;10.398;2022-10-31T01:36:54;11.30;99.90
13231;DHT22;6681;53.254;10.398;2022-10-31T01:39:19;12.90;99.90
13231;DHT22;6681;53.254;10.398;2022-10-31T01:41:48;11.30;99.90
13231;DHT22;6681;53.254;10.398;2022-10-31T01:46:58;11.30;99.90
13231;DHT22;6681;53.254;10.398;2022-10-31T01:50:06;11.20;99.90
13231;DHT22;6681;53.254;10.398;2022-10-31T01:52:42;11.30;99.90
13231;DHT22;6681;53.254;10.398;2022-10-31T01:57:46;11.30;99.90
13231;DHT22;6681;53.254;10.398;2022-10-31T02:00:14;11.30;99.90
13231;DHT22;6681;53.254;10.398;2022-10-31T02:02:40;11.20;99.90
13231;DHT22;6681;53.254;10.398;2022-10-31T02:05:09;11.20;99.90
13231;DHT22;6681;53.254;10.398;2022-10-31T02:07:48;11.20;99.90
13231;DHT22;6681;53.254;10.398;2022-10-31T02:10:17;11.20;99.90
13231;DHT22;6681;53.254;10.398;2022-10-31T02:12:44;11.10;99.90
13231;DHT22;6681;53.254;10.398;2022-10-31T02:15:11;11.00;99.90
13231;DHT22;6681;53.254;10.398;2022-10-31T02:17:36;11.40;99.90
13231;DHT22;6681;53.254;10.398;2022-10-31T02:20:20;11.00;99.90
13231;DHT22;6681;53.254;10.398;2022-10-31T02:22:58;11.00;99.90
13231;DHT22;6681;53.254;10.398;2022-10-31T02:33:49;11.80;99.90
13231;DHT22;6681;53.254;10.398;2022-10-31T02:36:17;11.10;99.90
13231;DHT22;6681;53.254;10.398;2022-10-31T02:41:44;11.10;99.90
13231;DHT22;6681;53.254;10.398;2022-10-31T02:44:28;11.00;99.90
13231;DHT22;6681;53.254;10.398;2022-10-31T02:46:59;11.00;99.90
13231;DHT22;6681;53.254;10.398;2022-10-31T02:49:32;11.00;99.90
13231;DHT22;6681;53.254;10.398;2022-10-31T02:51:59;11.30;99.90
13231;DHT22;6681;53.254;10.398;2022-10-31T02:54:26;11.10;99.90
13231;DHT22;6681;53.254;10.398;2022-10-31T02:57:05;11.20;99.90
13231;DHT22;6681;53.254;10.398;2022-10-31T02:59:33;11.20;99.90
13231;DHT22;6681;53.254;10.398;2022-10-31T03:12:38;11.10;99.90
13231;DHT22;6681;53.254;10.398;2022-10-31T03:15:30;11.30;99.90
13231;DHT22;6681;53.254;10.398;2022-10-31T03:18:00;11.20;99.90
13231;DHT22;6681;53.254;10.398;2022-10-31T03:20:33;12.60;99.90
13231;DHT22;6681;53.254;10.398;2022-10-31T03:23:01;11.30;99.90
13231;DHT22;6681;53.254;10.398;2022-10-31T03:25:29;11.10;99.90
13231;DHT22;6681;53.254;10.398;2022-10-31T03:27:56;11.30;99.90
13231;DHT22;6681;53.254;10.398;2022-10-31T03:30:23;11.10;99.90
13231;DHT22;6681;53.254;10.398;2022-10-31T03:32:54;10.20;99.90
13231;DHT22;6681;53.254;10.398;2022-10-31T03:35:23;11.30;99.90
13231;DHT22;6681;53.254;10.398;2022-10-31T03:37:49;11.50;99.90
13231;DHT22;6681;53.254;10.398;2022-10-31T03:40:19;11.30;99.90
13231;DHT22;6681;53.254;10.398;2022-10-31T03:42:51;11.30;99.90
13231;DHT22;6681;53.254;10.398;2022-10-31T03:45:26;11.30;99.90
13231;DHT22;6681;53.254;10.398;2022-10-31T03:47:53;11.30;99.90
13231;DHT22;6681;53.254;10.398;2022-10-31T03:50:21;11.30;99.90
13231;DHT22;6681;53.254;10.398;2022-10-31T03:52:57;11.30;99.90
13231;DHT22;6681;53.254;10.398;2022-10-31T03:55:31;11.40;99.90
13231;DHT22;6681;53.254;10.398;2022-10-31T03:58:04;11.40;99.90
13231;DHT22;6681;53.254;10.398;2022-10-31T04:00:34;11.30;99.90
13231;DHT22;6681;53.254;10.398;2022-10-31T04:03:05;11.30;99.90
13231;DHT22;6681;53.254;10.398;2022-10-31T04:05:33;11.40;99.90
13231;DHT22;6681;53.254;10.398;2022-10-31T04:08:02;11.30;99.90
13231;DHT22;6681;53.254;10.398;2022-10-31T04:10:30;11.70;99.90
13231;DHT22;6681;53.254;10.398;2022-10-31T04:13:01;11.50;99.90
13231;DHT22;6681;53.254;10.398;2022-10-31T04:15:28;11.50;99.90
13231;DHT22;6681;53.254;10.398;2022-10-31T04:17:58;11.50;99.90
13231;DHT22;6681;53.254;10.398;2022-10-31T04:20:32;12.60;99.90
13231;DHT22;6681;53.254;10.398;2022-10-31T04:22:58;11.60;99.90
13231;DHT22;6681;53.254;10.398;2022-10-31T04:25:24;11.60;99.90
13231;DHT22;6681;53.254;10.398;2022-10-31T04:27:49;11.70;99.90
13231;DHT22;6681;53.254;10.398;2022-10-31T04:30:15;11.60;99.90
13231;DHT22;6681;53.254;10.398;2022-10-31T04:32:41;11.70;99.90
13231;DHT22;6681;53.254;10.398;2022-10-31T04:35:06;11.60;99.90
13231;DHT22;6681;53.254;10.398;2022-10-31T04:37:32;11.60;99.90
13231;DHT22;6681;53.254;10.398;2022-10-31T04:39:58;11.60;99.90
13231;DHT22;6681;53.254;10.398;2022-10-31T04:42:23;11.50;99.90
13231;DHT22;6681;53.254;10.398;2022-10-31T04:44:49;11.60;99.90
13231;DHT22;6681;53.254;10.398;2022-10-31T04:47:14;12.40;99.90
13231;DHT22;6681;53.254;10.398;2022-10-31T04:49:40;11.60;99.90
13231;DHT22;6681;53.254;10.398;2022-10-31T04:52:05;11.50;99.90
13231;DHT22;6681;53.254;10.398;2022-10-31T04:54:32;11.50;99.90
13231;DHT22;6681;53.254;10.398;2022-10-31T04:56:58;11.60;99.90
13231;DHT22;6681;53.254;10.398;2022-10-31T04:59:23;11.60;99.90
13231;DHT22;6681;53.254;10.398;2022-10-31T05:01:49;11.60;99.90
13231;DHT22;6681;53.254;10.398;2022-10-31T05:04:14;11.80;99.90
13231;DHT22;6681;53.254;10.398;2022-10-31T05:06:40;12.30;99.90
13231;DHT22;6681;53.254;10.398;2022-10-31T05:09:05;11.50;99.90
13231;DHT22;6681;53.254;10.398;2022-10-31T05:11:31;11.50;99.90
13231;DHT22;6681;53.254;10.398;2022-10-31T05:13:56;11.50;99.90
13231;DHT22;6681;53.254;10.398;2022-10-31T05:16:22;11.50;99.90
13231;DHT22;6681;53.254;10.398;2022-10-31T05:18:49;11.50;99.90
13231;DHT22;6681;53.254;10.398;2022-10-31T05:21:14;12.50;99.90
13231;DHT22;6681;53.254;10.398;2022-10-31T05:23:40;11.50;99.90
13231;DHT22;6681;53.254;10.398;2022-10-31T05:26:05;11.50;99.90
13231;DHT22;6681;53.254;10.398;2022-10-31T05:28:31;11.50;99.90
13231;DHT22;6681;53.254;10.398;2022-10-31T05:30:57;12.50;99.90
13231;DHT22;6681;53.254;10.398;2022-10-31T05:33:22;11.60;99.90
13231;DHT22;6681;53.254;10.398;2022-10-31T05:35:48;11.60;99.90
13231;DHT22;6681;53.254;10.398;2022-10-31T05:38:13;12.90;99.90
13231;DHT22;6681;53.254;10.398;2022-10-31T05:40:39;11.80;99.90
13231;DHT22;6681;53.254;10.398;2022-10-31T05:43:05;11.80;99.90
13231;DHT22;6681;53.254;10.398;2022-10-31T05:45:30;13.00;99.90
13231;DHT22;6681;53.254;10.398;2022-10-31T05:48:00;13.70;99.90
13231;DHT22;6681;53.254;10.398;2022-10-31T05:50:28;12.00;99.90
13231;DHT22;6681;53.254;10.398;2022-10-31T05:55:20;12.20;99.90
13231;DHT22;6681;53.254;10.398;2022-10-31T05:57:46;12.40;99.90
13231;DHT22;6681;53.254;10.398;2022-10-31T06:00:12;13.70;99.90
13231;DHT22;6681;53.254;10.398;2022-10-31T06:02:37;12.00;99.90
13231;DHT22;6681;53.254;10.398;2022-10-31T06:05:03;12.00;99.90
13231;DHT22;6681;53.254;10.398;2022-10-31T06:07:33;12.10;99.90
13231;DHT22;6681;53.254;10.398;2022-10-31T06:09:59;12.00;99.90
13231;DHT22;6681;53.254;10.398;2022-10-31T06:12:25;12.10;99.90
13231;DHT22;6681;53.254;10.398;2022-10-31T06:14:51;12.10;99.90
13231;DHT22;6681;53.254;10.398;2022-10-31T06:17:16;12.10;99.90
13231;DHT22;6681;53.254;10.398;2022-10-31T06:19:42;12.10;99.90
13231;DHT22;6681;53.254;10.398;2022-10-31T06:22:07;12.30;99.90
13231;DHT22;6681;53.254;10.398;2022-10-31T06:24:33;12.10;99.90
13231;DHT22;6681;53.254;10.398;2022-10-31T06:26:59;12.10;99.90
13231;DHT22;6681;53.254;10.398;2022-10-31T06:29:24;12.20;99.90
13231;DHT22;6681;53.254;10.398;2022-10-31T06:31:53;12.20;99.90
13231;DHT22;6681;53.254;10.398;2022-10-31T06:34:18;12.10;99.90
13231;DHT22;6681;53.254;10.398;2022-10-31T06:36:46;12.40;99.90
13231;DHT22;6681;53.254;10.398;2022-10-31T06:39:12;12.40;99.90
13231;DHT22;6681;53.254;10.398;2022-10-31T06:41:37;12.50;99.90
13231;DHT22;6681;53.254;10.398;2022-10-31T06:44:05;12.20;99.90
13231;DHT22;6681;53.254;10.398;2022-10-31T06:46:31;12.20;99.90
13231;DHT22;6681;53.254;10.398;2022-10-31T06:48:56;12.20;99.90
13231;DHT22;6681;53.254;10.398;2022-10-31T06:51:22;12.20;99.90
13231;DHT22;6681;53.254;10.398;2022-10-31T06:53:48;12.20;99.90
13231;DHT22;6681;53.254;10.398;2022-10-31T06:56:13;12.80;99.90
13231;DHT22;6681;53.254;10.398;2022-10-31T06:58:39;12.30;99.90
13231;DHT22;6681;53.254;10.398;2022-10-31T07:01:05;12.30;99.90
13231;DHT22;6681;53.254;10.398;2022-10-31T07:03:30;12.30;99.90
13231;DHT22;6681;53.254;10.398;2022-10-31T07:05:56;12.60;99.90
13231;DHT22;6681;53.254;10.398;2022-10-31T07:08:23;13.20;99.90
13231;DHT22;6681;53.254;10.398;2022-10-31T07:10:56;12.50;99.90
13231;DHT22;6681;53.254;10.398;2022-10-31T07:13:22;12.60;99.90
13231;DHT22;6681;53.254;10.398;2022-10-31T07:15:52;12.60;99.90
13231;DHT22;6681;53.254;10.398;2022-10-31T07:18:18;13.20;99.90
13231;DHT22;6681;53.254;10.398;2022-10-31T07:20:44;12.60;99.90
13231;DHT22;6681;53.254;10.398;2022-10-31T07:23:10;12.60;99.90
13231;DHT22;6681;53.254;10.398;2022-10-31T07:25:37;12.60;99.90
13231;DHT22;6681;53.254;10.398;2022-10-31T07:28:03;12.60;99.90
13231;DHT22;6681;53.254;10.398;2022-10-31T07:30:28;12.60;99.90
13231;DHT22;6681;53.254;10.398;2022-10-31T07:32:54;12.80;99.90
13231;DHT22;6681;53.254;10.398;2022-10-31T07:35:25;12.80;99.90
13231;DHT22;6681;53.254;10.398;2022-10-31T07:37:51;12.80;99.90
13231;DHT22;6681;53.254;10.398;2022-10-31T07:40:18;14.00;99.90
13231;DHT22;6681;53.254;10.398;2022-10-31T07:42:48;12.90;99.90
13231;DHT22;6681;53.254;10.398;2022-10-31T07:45:18;13.00;99.90
13231;DHT22;6681;53.254;10.398;2022-10-31T07:47:49;13.00;99.90
13231;DHT22;6681;53.254;10.398;2022-10-31T07:50:27;13.00;99.90
13231;DHT22;6681;53.254;10.398;2022-10-31T07:53:10;13.00;99.90
13231;DHT22;6681;53.254;10.398;2022-10-31T07:55:36;13.00;99.90
13231;DHT22;6681;53.254;10.398;2022-10-31T07:58:04;13.20;99.90
13231;DHT22;6681;53.254;10.398;2022-10-31T08:00:32;14.10;99.90
13231;DHT22;6681;53.254;10.398;2022-10-31T08:02:59;13.00;99.90
13231;DHT22;6681;53.254;10.398;2022-10-31T08:05:28;13.10;99.90
13231;DHT22;6681;53.254;10.398;2022-10-31T08:07:55;13.30;99.90
13231;DHT22;6681;53.254;10.398;2022-10-31T08:10:21;13.10;99.90
13231;DHT22;6681;53.254;10.398;2022-10-31T08:12:47;13.20;99.90
13231;DHT22;6681;53.254;10.398;2022-10-31T08:15:19;13.20;99.90
13231;DHT22;6681;53.254;10.398;2022-10-31T08:17:45;13.60;99.90
13231;DHT22;6681;53.254;10.398;2022-10-31T08:20:10;13.20;99.90
13231;DHT22;6681;53.254;10.398;2022-10-31T08:22:36;13.50;99.90
13231;DHT22;6681;53.254;10.398;2022-10-31T08:25:02;13.30;99.90
13231;DHT22;6681;53.254;10.398;2022-10-31T08:27:28;13.40;99.90
13231;DHT22;6681;53.254;10.398;2022-10-31T08:29:53;13.40;99.90
13231;DHT22;6681;53.254;10.398;2022-10-31T08:32:19;13.40;99.90
13231;DHT22;6681;53.254;10.398;2022-10-31T08:34:44;13.40;99.90
13231;DHT22;6681;53.254;10.398;2022-10-31T08:37:10;13.40;99.90
13231;DHT22;6681;53.254;10.398;2022-10-31T08:39:35;13.50;99.90
13231;DHT22;6681;53.254;10.398;2022-10-31T08:42:01;13.50;99.90
13231;DHT22;6681;53.254;10.398;2022-10-31T08:44:27;13.60;99.90
13231;DHT22;6681;53.254;10.398;2022-10-31T08:46:53;13.60;99.90
13231;DHT22;6681;53.254;10.398;2022-10-31T08:49:18;13.70;99.90
13231;DHT22;6681;53.254;10.398;2022-10-31T08:51:47;13.70;99.90
13231;DHT22;6681;53.254;10.398;2022-10-31T08:54:13;13.80;99.90
13231;DHT22;6681;53.254;10.398;2022-10-31T08:56:39;13.80;99.90
13231;DHT22;6681;53.254;10.398;2022-10-31T08:59:04;13.80;99.90
13231;DHT22;6681;53.254;10.398;2022-10-31T09:01:30;14.60;99.90
13231;DHT22;6681;53.254;10.398;2022-10-31T09:03:55;13.90;99.90
13231;DHT22;6681;53.254;10.398;2022-10-31T09:06:21;13.90;99.90
13231;DHT22;6681;53.254;10.398;2022-10-31T09:08:46;14.00;99.90
13231;DHT22;6681;53.254;10.398;2022-10-31T09:11:12;14.00;99.90
13231;DHT22;6681;53.254;10.398;2022-10-31T09:13:38;13.90;99.90
13231;DHT22;6681;53.254;10.398;2022-10-31T09:16:03;14.00;99.90
13231;DHT22;6681;53.254;10.398;2022-10-31T09:18:29;14.00;99.90
13231;DHT22;6681;53.254;10.398;2022-10-31T09:20:58;14.00;99.90
13231;DHT22;6681;53.254;10.398;2022-10-31T09:23:24;14.10;99.90
13231;DHT22;6681;53.254;10.398;2022-10-31T09:25:51;14.00;99.90
13231;DHT22;6681;53.254;10.398;2022-10-31T09:28:19;14.70;99.90
13231;DHT22;6681;53.254;10.398;2022-10-31T09:30:49;14.10;99.90
13231;DHT22;6681;53.254;10.398;2022-10-31T09:33:15;14.10;99.90
13231;DHT22;6681;53.254;10.398;2022-10-31T09:35:41;14.30;99.90
13231;DHT22;6681;53.254;10.398;2022-10-31T09:38:13;14.10;99.90
13231;DHT22;6681;53.254;10.398;2022-10-31T09:40:44;14.20;99.90
13231;DHT22;6681;53.254;10.398;2022-10-31T09:43:33;14.20;99.90
13231;DHT22;6681;53.254;10.398;2022-10-31T09:49:37;14.20;99.90
13231;DHT22;6681;53.254;10.398;2022-10-31T09:52:18;14.20;99.90
13231;DHT22;6681;53.254;10.398;2022-10-31T09:55:05;14.20;99.90
13231;DHT22;6681;53.254;10.398;2022-10-31T09:57:36;14.20;99.90
13231;DHT22;6681;53.254;10.398;2022-10-31T10:00:07;14.30;99.90
13231;DHT22;6681;53.254;10.398;2022-10-31T10:05:39;14.40;99.90
13231;DHT22;6681;53.254;10.398;2022-10-31T10:08:29;14.50;99.90
13231;DHT22;6681;53.254;10.398;2022-10-31T10:11:15;14.50;99.90
13231;DHT22;6681;53.254;10.398;2022-10-31T10:27:49;14.60;99.90
13231;DHT22;6681;53.254;10.398;2022-10-31T10:30:21;14.70;99.90
13231;DHT22;6681;53.254;10.398;2022-10-31T10:32:54;14.70;99.90
13231;DHT22;6681;53.254;10.398;2022-10-31T10:37:52;14.80;99.90
13231;DHT22;6681;53.254;10.398;2022-10-31T10:40:24;14.80;99.90
13231;DHT22;6681;53.254;10.398;2022-10-31T11:00:24;15.00;99.90
13231;DHT22;6681;53.254;10.398;2022-10-31T11:02:50;15.20;99.90
13231;DHT22;6681;53.254;10.398;2022-10-31T11:05:35;15.00;99.90
13231;DHT22;6681;53.254;10.398;2022-10-31T11:08:02;14.90;99.90
13231;DHT22;6681;53.254;10.398;2022-10-31T11:10:28;14.90;99.90
13231;DHT22;6681;53.254;10.398;2022-10-31T11:15:26;15.00;99.90
13231;DHT22;6681;53.254;10.398;2022-10-31T11:17:55;15.00;99.90
13231;DHT22;6681;53.254;10.398;2022-10-31T11:20:33;15.00;99.90
13231;DHT22;6681;53.254;10.398;2022-10-31T11:23:19;15.10;99.90
13231;DHT22;6681;53.254;10.398;2022-10-31T11:25:59;15.10;99.90
13231;DHT22;6681;53.254;10.398;2022-10-31T11:28:27;15.00;99.90
13231;DHT22;6681;53.254;10.398;2022-10-31T11:30:59;15.00;99.90
13231;DHT22;6681;53.254;10.398;2022-10-31T11:33:46;14.90;99.90
13231;DHT22;6681;53.254;10.398;2022-10-31T11:36:22;14.90;99.90
13231;DHT22;6681;53.254;10.398;2022-10-31T11:38:48;14.90;99.90
13231;DHT22;6681;53.254;10.398;2022-10-31T11:41:38;15.00;99.90
13231;DHT22;6681;53.254;10.398;2022-10-31T11:44:33;15.00;99.90
13231;DHT22;6681;53.254;10.398;2022-10-31T11:47:02;15.10;99.90
13231;DHT22;6681;53.254;10.398;2022-10-31T11:49:35;15.90;99.90
13231;DHT22;6681;53.254;10.398;2022-10-31T11:52:08;15.20;99.90
13231;DHT22;6681;53.254;10.398;2022-10-31T11:57:32;15.30;99.90
13231;DHT22;6681;53.254;10.398;2022-10-31T12:00:00;15.30;99.90
13231;DHT22;6681;53.254;10.398;2022-10-31T12:02:26;15.30;99.90
13231;DHT22;6681;53.254;10.398;2022-10-31T12:05:01;15.30;99.90
13231;DHT22;6681;53.254;10.398;2022-10-31T12:07:27;15.30;99.90
13231;DHT22;6681;53.254;10.398;2022-10-31T12:09:53;15.30;99.90
13231;DHT22;6681;53.254;10.398;2022-10-31T12:12:43;15.30;99.90
13231;DHT22;6681;53.254;10.398;2022-10-31T12:23:50;15.40;99.90
13231;DHT22;6681;53.254;10.398;2022-10-31T12:26:32;15.40;99.90
13231;DHT22;6681;53.254;10.398;2022-10-31T12:45:36;15.50;99.90
13231;DHT22;6681;53.254;10.398;2022-10-31T12:48:52;15.50;99.90
13231;DHT22;6681;53.254;10.398;2022-10-31T12:54:08;15.50;99.90
13231;DHT22;6681;53.254;10.398;2022-10-31T13:07:39;15.70;99.90
13231;DHT22;6681;53.254;10.398;2022-10-31T13:10:21;15.80;99.90
13231;DHT22;6681;53.254;10.398;2022-10-31T13:12:51;15.80;99.90
13231;DHT22;6681;53.254;10.398;2022-10-31T13:15:24;15.80;99.90
13231;DHT22;6681;53.254;10.398;2022-10-31T13:17:55;16.00;99.90
13231;DHT22;6681;53.254;10.398;2022-10-31T13:20:30;15.80;99.90
13231;DHT22;6681;53.254;10.398;2022-10-31T13:25:52;15.90;99.90
13231;DHT22;6681;53.254;10.398;2022-10-31T13:28:46;15.90;99.90
13231;DHT22;6681;53.254;10.398;2022-10-31T13:31:13;15.90;99.90
13231;DHT22;6681;53.254;10.398;2022-10-31T13:33:46;15.90;99.90
13231;DHT22;6681;53.254;10.398;2022-10-31T13:36:37;15.90;99.90
13231;DHT22;6681;53.254;10.398;2022-10-31T13:44:27;15.90;99.90
13231;DHT22;6681;53.254;10.398;2022-10-31T13:46:55;15.90;99.90
13231;DHT22;6681;53.254;10.398;2022-10-31T13:54:42;15.90;99.90
13231;DHT22;6681;53.254;10.398;2022-10-31T13:57:34;15.80;99.90
13231;DHT22;6681;53.254;10.398;2022-10-31T14:00:05;15.80;99.90
13231;DHT22;6681;53.254;10.398;2022-10-31T14:02:34;15.80;99.90
13231;DHT22;6681;53.254;10.398;2022-10-31T14:05:06;15.70;99.90
13231;DHT22;6681;53.254;10.398;2022-10-31T14:07:43;15.60;99.90
13231;DHT22;6681;53.254;10.398;2022-10-31T14:10:37;16.20;99.90
13231;DHT22;6681;53.254;10.398;2022-10-31T14:15:29;15.50;99.90
13231;DHT22;6681;53.254;10.398;2022-10-31T14:18:01;15.50;99.90
13231;DHT22;6681;53.254;10.398;2022-10-31T14:20:41;15.50;99.90
13231;DHT22;6681;53.254;10.398;2022-10-31T14:23:39;15.50;99.90
13231;DHT22;6681;53.254;10.398;2022-10-31T14:28:45;15.50;99.90
13231;DHT22;6681;53.254;10.398;2022-10-31T14:31:33;15.50;99.90
13231;DHT22;6681;53.254;10.398;2022-10-31T14:34:06;15.50;99.90
13231;DHT22;6681;53.254;10.398;2022-10-31T14:42:24;15.20;99.90
13231;DHT22;6681;53.254;10.398;2022-10-31T14:45:01;15.20;99.90
13231;DHT22;6681;53.254;10.398;2022-10-31T14:53:02;15.10;99.90
13231;DHT22;6681;53.254;10.398;2022-10-31T14:55:30;15.10;99.90
13231;DHT22;6681;53.254;10.398;2022-10-31T14:58:02;15.00;99.90
13231;DHT22;6681;53.254;10.398;2022-10-31T15:00:29;14.90;99.90
13231;DHT22;6681;53.254;10.398;2022-10-31T15:05:51;14.80;99.90
13231;DHT22;6681;53.254;10.398;2022-10-31T15:10:56;14.80;99.90
13231;DHT22;6681;53.254;10.398;2022-10-31T15:13:22;14.80;99.90
13231;DHT22;6681;53.254;10.398;2022-10-31T15:15:50;14.80;99.90
13231;DHT22;6681;53.254;10.398;2022-10-31T15:18:20;14.80;99.90
13231;DHT22;6681;53.254;10.398;2022-10-31T15:20:46;14.80;99.90
13231;DHT22;6681;53.254;10.398;2022-10-31T15:23:23;14.80;99.90
13231;DHT22;6681;53.254;10.398;2022-10-31T15:25:50;14.70;99.90
13231;DHT22;6681;53.254;10.398;2022-10-31T15:28:22;14.50;99.90
13231;DHT22;6681;53.254;10.398;2022-10-31T15:30:54;14.50;99.90
13231;DHT22;6681;53.254;10.398;2022-10-31T15:33:23;14.40;99.90
13231;DHT22;6681;53.254;10.398;2022-10-31T15:36:02;14.50;99.90
13231;DHT22;6681;53.254;10.398;2022-10-31T15:38:28;14.50;99.90
13231;DHT22;6681;53.254;10.398;2022-10-31T15:43:29;14.50;99.90
13231;DHT22;6681;53.254;10.398;2022-10-31T15:45:56;14.40;99.90
13231;DHT22;6681;53.254;10.398;2022-10-31T15:48:24;14.60;99.90
13231;DHT22;6681;53.254;10.398;2022-10-31T15:50:55;14.20;99.90
13231;DHT22;6681;53.254;10.398;2022-10-31T15:53:25;14.50;99.90
13231;DHT22;6681;53.254;10.398;2022-10-31T15:56:00;14.00;99.90
13231;DHT22;6681;53.254;10.398;2022-10-31T15:58:28;14.10;99.90
13231;DHT22;6681;53.254;10.398;2022-10-31T16:01:00;15.50;99.90
13231;DHT22;6681;53.254;10.398;2022-10-31T16:03:31;14.00;99.90
13231;DHT22;6681;53.254;10.398;2022-10-31T16:06:03;14.00;99.90
13231;DHT22;6681;53.254;10.398;2022-10-31T16:13:40;13.90;99.90
13231;DHT22;6681;53.254;10.398;2022-10-31T16:16:15;13.90;99.90
13231;DHT22;6681;53.254;10.398;2022-10-31T16:18:41;13.90;99.90
13231;DHT22;6681;53.254;10.398;2022-10-31T16:21:08;13.80;99.90
13231;DHT22;6681;53.254;10.398;2022-10-31T16:23:34;13.80;99.90
13231;DHT22;6681;53.254;10.398;2022-10-31T16:26:06;13.60;99.90
13231;DHT22;6681;53.254;10.398;2022-10-31T16:28:32;13.60;99.90
13231;DHT22;6681;53.254;10.398;2022-10-31T16:30:59;13.60;99.90
13231;DHT22;6681;53.254;10.398;2022-10-31T16:33:30;13.60;99.90
13231;DHT22;6681;53.254;10.398;2022-10-31T16:35:59;13.60;99.90
13231;DHT22;6681;53.254;10.398;2022-10-31T16:38:26;13.60;99.90
13231;DHT22;6681;53.254;10.398;2022-10-31T16:40:52;13.90;99.90
13231;DHT22;6681;53.254;10.398;2022-10-31T16:43:19;13.70;99.90
13231;DHT22;6681;53.254;10.398;2022-10-31T16:45:52;13.60;99.90
13231;DHT22;6681;53.254;10.398;2022-10-31T16:48:20;13.50;99.90
13231;DHT22;6681;53.254;10.398;2022-10-31T16:50:48;13.50;99.90
13231;DHT22;6681;53.254;10.398;2022-10-31T16:53:14;13.70;99.90
13231;DHT22;6681;53.254;10.398;2022-10-31T16:55:46;13.40;99.90
13231;DHT22;6681;53.254;10.398;2022-10-31T16:58:19;13.50;99.90
13231;DHT22;6681;53.254;10.398;2022-10-31T17:00:45;13.50;99.90
13231;DHT22;6681;53.254;10.398;2022-10-31T17:03:11;13.50;99.90
13231;DHT22;6681;53.254;10.398;2022-10-31T17:05:37;13.40;99.90
13231;DHT22;6681;53.254;10.398;2022-10-31T17:08:03;13.40;99.90
13231;DHT22;6681;53.254;10.398;2022-10-31T17:10:29;13.40;99.90
13231;DHT22;6681;53.254;10.398;2022-10-31T17:12:55;13.40;99.90
13231;DHT22;6681;53.254;10.398;2022-10-31T17:15:27;13.30;99.90
13231;DHT22;6681;53.254;10.398;2022-10-31T17:17:53;13.40;99.90
13231;DHT22;6681;53.254;10.398;2022-10-31T17:20:26;13.30;99.90
13231;DHT22;6681;53.254;10.398;2022-10-31T17:22:53;13.40;99.90
13231;DHT22;6681;53.254;10.398;2022-10-31T17:25:21;13.30;99.90
13231;DHT22;6681;53.254;10.398;2022-10-31T17:27:48;13.40;99.90
13231;DHT22;6681;53.254;10.398;2022-10-31T17:30:14;13.50;99.90
13231;DHT22;6681;53.254;10.398;2022-10-31T17:32:41;13.30;99.90
13231;DHT22;6681;53.254;10.398;2022-10-31T17:35:11;13.30;99.90
13231;DHT22;6681;53.254;10.398;2022-10-31T17:37:40;13.30;99.90
13231;DHT22;6681;53.254;10.398;2022-10-31T17:40:08;13.20;99.90
13231;DHT22;6681;53.254;10.398;2022-10-31T17:42:34;13.30;99.90
13231;DHT22;6681;53.254;10.398;2022-10-31T17:44:59;13.70;99.90
13231;DHT22;6681;53.254;10.398;2022-10-31T17:47:25;14.20;99.90
13231;DHT22;6681;53.254;10.398;2022-10-31T17:49:51;13.40;99.90
13231;DHT22;6681;53.254;10.398;2022-10-31T17:52:18;13.40;99.90
13231;DHT22;6681;53.254;10.398;2022-10-31T17:54:44;13.30;99.90
13231;DHT22;6681;53.254;10.398;2022-10-31T17:57:09;13.30;99.90
13231;DHT22;6681;53.254;10.398;2022-10-31T17:59:35;14.30;99.90
13231;DHT22;6681;53.254;10.398;2022-10-31T18:02:01;13.30;99.90
13231;DHT22;6681;53.254;10.398;2022-10-31T18:04:27;13.30;99.90
13231;DHT22;6681;53.254;10.398;2022-10-31T18:06:53;13.30;99.90
13231;DHT22;6681;53.254;10.398;2022-10-31T18:09:18;13.30;99.90
13231;DHT22;6681;53.254;10.398;2022-10-31T18:11:44;13.30;99.90
13231;DHT22;6681;53.254;10.398;2022-10-31T18:14:10;13.30;99.90
13231;DHT22;6681;53.254;10.398;2022-10-31T18:16:36;13.20;99.90
13231;DHT22;6681;53.254;10.398;2022-10-31T18:19:02;13.20;99.90
13231;DHT22;6681;53.254;10.398;2022-10-31T18:21:30;13.90;99.90